Time;durP1;ratioP1;P1;durP2;ratioP2;P2;SDS_P1;SDS_P2;PMS_P1;PMS_P2;Temp;Humidity;BMP_temperature;BMP_pressure;BME280_temperature;BME280_humidity;BME280_pressure;Samples;Min_cycle;Max_cycle;Signal;HPM_P1;HPM_P2
2023/04/30 00:01:45;;;;;;;21.98;8.70;;;;;;;7.64;69.03;101110.75;10170358;29;20064;-76
2023/04/30 00:06:50;;;;;;;9.85;6.78;;;;;;;7.60;69.04;101119.94;10157341;29;20401;-75
2023/04/30 00:11:52;;;;;;;13.40;7.03;;;;;;;7.52;69.22;101118.63;10159871;29;20095;-75
2023/04/30 00:16:55;;;;;;;15.32;7.88;;;;;;;7.40;69.20;101125.50;10159512;29;20116;-76
2023/04/30 00:22:00;;;;;;;10.45;7.18;;;;;;;7.35;69.47;101119.56;10159550;29;20508;-76
2023/04/30 00:27:03;;;;;;;17.73;8.48;;;;;;;7.37;69.44;101128.38;10163196;29;20102;-75
2023/04/30 00:32:06;;;;;;;10.80;6.65;;;;;;;7.45;69.41;101126.97;10160665;29;20070;-76
2023/04/30 00:37:10;;;;;;;12.20;6.50;;;;;;;7.39;69.31;101130.00;10145087;29;20469;-76
2023/04/30 00:42:13;;;;;;;7.55;5.97;;;;;;;7.32;68.90;101135.78;10147644;29;20440;-76
2023/04/30 00:47:16;;;;;;;14.23;6.65;;;;;;;7.23;69.09;101140.69;10150663;29;20048;-76
2023/04/30 00:52:20;;;;;;;11.95;5.95;;;;;;;7.18;69.05;101141.88;10157617;29;20500;-76
2023/04/30 00:57:23;;;;;;;11.05;6.18;;;;;;;7.08;68.95;101151.38;10153645;29;20052;-76
2023/04/30 01:02:26;;;;;;;10.60;5.88;;;;;;;6.90;69.45;101155.88;10163580;29;20069;-76
2023/04/30 01:07:31;;;;;;;11.48;6.53;;;;;;;6.20;71.80;101163.00;10159598;29;20582;-74
2023/04/30 01:12:39;;;;;;;13.55;7.57;;;;;;;6.37;71.47;101163.91;10162710;29;20106;-76
2023/04/30 01:17:48;;;;;;;11.70;7.07;;;;;;;6.45;71.19;101166.19;10169264;29;20082;-76
2023/04/30 01:23:00;;;;;;;12.63;6.90;;;;;;;6.38;71.00;101170.09;10164800;29;20108;-76
2023/04/30 01:28:06;;;;;;;10.75;7.10;;;;;;;6.10;72.32;101167.97;10144810;29;20505;-75
2023/04/30 01:33:09;;;;;;;11.02;7.35;;;;;;;5.99;72.52;101163.16;10162220;29;20040;-75
2023/04/30 01:38:25;;;;;;;16.05;8.20;;;;;;;5.92;72.85;101164.41;10146583;29;20481;-77
2023/04/30 01:43:38;;;;;;;13.77;6.63;;;;;;;5.92;73.15;101164.41;10166013;29;20159;-75
2023/04/30 01:48:51;;;;;;;13.20;8.10;;;;;;;6.04;72.91;101162.94;10159528;29;20029;-76
2023/04/30 01:53:58;;;;;;;15.82;7.40;;;;;;;6.00;72.88;101161.34;10146241;29;20594;-76
2023/04/30 01:59:04;;;;;;;13.27;8.25;;;;;;;6.29;72.45;101171.44;10160302;29;20043;-76
2023/04/30 02:04:06;;;;;;;11.65;7.10;;;;;;;6.43;71.91;101176.06;10163473;29;20512;-76
2023/04/30 02:09:09;;;;;;;14.32;7.05;;;;;;;6.39;71.68;101188.72;10158520;29;20067;-76
2023/04/30 02:14:14;;;;;;;11.57;7.20;;;;;;;6.21;71.86;101191.44;10163378;29;20047;-75
2023/04/30 02:19:17;;;;;;;15.07;6.97;;;;;;;6.30;71.86;101185.63;10148172;29;20048;-75
2023/04/30 02:24:19;;;;;;;9.60;6.68;;;;;;;6.36;71.09;101186.22;10154133;29;20457;-76
2023/04/30 02:29:24;;;;;;;18.33;6.78;;;;;;;6.12;71.38;101198.97;10160522;29;20068;-76
2023/04/30 02:34:26;;;;;;;14.77;9.48;;;;;;;6.10;71.50;101194.66;10154777;29;20048;-75
2023/04/30 02:39:29;;;;;;;19.08;7.18;;;;;;;6.02;71.74;101197.69;10162206;29;20040;-76
2023/04/30 02:44:34;;;;;;;18.90;7.00;;;;;;;6.08;71.57;101197.38;10159409;29;20064;-76
2023/04/30 02:49:37;;;;;;;12.15;6.68;;;;;;;6.12;71.50;101198.09;10165042;29;20084;-76
2023/04/30 02:54:40;;;;;;;10.45;6.03;;;;;;;6.11;71.12;101201.69;10169801;29;20131;-76
2023/04/30 02:59:44;;;;;;;13.75;6.05;;;;;;;6.02;70.29;101202.16;10165577;29;20044;-76
2023/04/30 03:04:48;;;;;;;13.02;5.95;;;;;;;5.93;70.21;101198.16;10157499;29;20084;-76
2023/04/30 03:09:51;;;;;;;12.23;6.60;;;;;;;5.90;70.14;101203.63;10160425;29;20072;-76
2023/04/30 03:14:56;;;;;;;11.63;6.60;;;;;;;5.90;70.24;101203.63;10168660;29;20060;-75
2023/04/30 03:19:59;;;;;;;11.02;5.97;;;;;;;5.90;70.07;101203.63;10162752;29;20075;-75
2023/04/30 03:25:02;;;;;;;14.23;7.05;;;;;;;5.68;70.12;101211.78;10157553;29;20044;-76
2023/04/30 03:30:07;;;;;;;17.58;6.93;;;;;;;5.48;71.06;101212.72;10158257;29;20044;-77
2023/04/30 03:35:10;;;;;;;13.90;6.53;;;;;;;5.44;71.38;101206.66;10136222;29;20044;-78
2023/04/30 03:40:13;;;;;;;19.42;7.68;;;;;;;5.19;72.38;101214.94;10144290;29;20044;-75
2023/04/30 03:45:18;;;;;;;20.23;7.63;;;;;;;5.10;72.75;101214.47;10164406;29;20052;-76
2023/04/30 03:50:20;;;;;;;17.15;8.40;;;;;;;5.20;72.94;101224.63;10147574;29;20040;-77
2023/04/30 03:55:23;;;;;;;12.65;7.28;;;;;;;5.35;72.81;101215.09;10144753;29;20152;-76
2023/04/30 04:00:28;;;;;;;17.00;8.00;;;;;;;5.42;72.36;101211.19;10128426;29;20068;-75
2023/04/30 04:05:31;;;;;;;14.18;7.70;;;;;;;5.43;71.76;101215.59;10154034;29;20135;-75
2023/04/30 04:10:35;;;;;;;13.23;7.43;;;;;;;5.38;71.21;101214.94;10156239;29;20096;-76
2023/04/30 04:15:40;;;;;;;13.63;7.78;;;;;;;5.32;71.05;101209.91;10142395;29;20393;-75
2023/04/30 04:20:42;;;;;;;12.13;7.65;;;;;;;5.38;70.86;101214.94;10146185;29;20048;-76
2023/04/30 04:25:48;;;;;;;15.00;7.07;;;;;;;5.37;70.39;101218.53;10162246;29;20436;-76
2023/04/30 04:30:52;;;;;;;16.35;7.00;;;;;;;5.32;70.13;101215.25;10123863;29;20455;-75
2023/04/30 04:35:56;;;;;;;13.02;6.47;;;;;;;5.33;70.03;101218.75;10099388;29;20132;-75
2023/04/30 04:40:59;;;;;;;15.00;7.55;;;;;;;5.31;70.01;101218.81;10110807;29;20048;-75
2023/04/30 04:46:04;;;;;;;16.55;7.20;;;;;;;5.35;70.26;101219.53;10108218;29;20052;-75
2023/04/30 04:51:06;;;;;;;14.80;7.47;;;;;;;5.42;70.39;101226.31;10120162;29;20535;-74
2023/04/30 04:56:10;;;;;;;12.75;7.65;;;;;;;5.46;70.88;101223.47;10122382;29;20054;-76
2023/04/30 05:01:14;;;;;;;16.48;8.23;;;;;;;5.54;71.16;101223.09;10119164;29;20520;-75
2023/04/30 05:06:20;;;;;;;12.63;7.50;;;;;;;5.70;71.28;101223.22;10116228;29;20055;-75
2023/04/30 05:11:23;;;;;;;15.18;8.13;;;;;;;5.89;71.24;101225.88;10123332;29;20689;-75
2023/04/30 05:16:28;;;;;;;12.73;8.63;;;;;;;5.97;70.91;101225.53;10098219;29;20536;-74
2023/04/30 05:21:31;;;;;;;15.02;8.70;;;;;;;6.09;70.95;101239.13;10110050;29;20701;-76
2023/04/30 05:26:34;;;;;;;17.38;9.75;;;;;;;6.15;70.78;101244.16;10116639;29;20048;-77
2023/04/30 05:31:38;;;;;;;16.77;8.80;;;;;;;6.20;70.68;101245.72;10114031;29;20128;-76
2023/04/30 05:36:41;;;;;;;20.13;9.27;;;;;;;6.22;70.81;101252.72;10120898;29;20052;-76
2023/04/30 05:41:46;;;;;;;24.65;9.27;;;;;;;6.40;70.87;101254.50;10126525;29;20096;-76
2023/04/30 05:46:50;;;;;;;18.98;9.30;;;;;;;6.46;70.37;101261.31;10123034;29;20063;-76
2023/04/30 05:51:53;;;;;;;16.02;9.13;;;;;;;6.59;70.12;101257.09;10128662;29;20059;-76
2023/04/30 05:56:56;;;;;;;18.52;7.72;;;;;;;6.67;69.90;101253.19;10124004;29;20148;-76
2023/04/30 06:02:00;;;;;;;16.63;7.00;;;;;;;6.91;69.68;101254.63;10124832;29;20052;-75
2023/04/30 06:07:03;;;;;;;19.13;7.25;;;;;;;7.10;69.03;101256.31;10127154;29;20052;-77
2023/04/30 06:12:06;;;;;;;13.68;7.20;;;;;;;7.28;68.54;101258.03;10129704;29;20040;-75
2023/04/30 06:17:10;;;;;;;21.52;7.72;;;;;;;7.50;67.69;101245.22;10126159;29;20435;-75
2023/04/30 06:22:13;;;;;;;17.35;6.50;;;;;;;7.78;66.85;101250.88;10129992;29;20048;-76
2023/04/30 06:27:16;;;;;;;16.58;5.88;;;;;;;7.85;64.72;101260.28;10135478;29;20055;-76
2023/04/30 06:32:20;;;;;;;14.15;5.95;;;;;;;7.78;63.81;101262.44;10128086;29;20119;-76
2023/04/30 06:37:23;;;;;;;20.38;5.78;;;;;;;7.92;64.02;101259.84;10124011;29;20126;-76
2023/04/30 06:42:26;;;;;;;17.17;6.93;;;;;;;8.09;63.65;101266.94;10120698;29;20197;-75
2023/04/30 06:47:33;;;;;;;21.58;6.18;;;;;;;8.34;63.26;101278.94;10128507;29;20616;-76
2023/04/30 06:52:36;;;;;;;15.45;5.82;;;;;;;8.57;62.85;101282.97;10121548;29;20126;-76
2023/04/30 06:57:39;;;;;;;11.00;4.00;;;;;;;9.05;62.42;101275.63;10125024;29;20052;-76
2023/04/30 07:02:46;;;;;;;14.70;4.57;;;;;;;9.31;60.52;101281.25;10125023;29;20058;-76
2023/04/30 07:07:49;;;;;;;7.60;3.78;;;;;;;9.78;59.88;101277.41;10120788;29;20048;-76
2023/04/30 07:12:52;;;;;;;12.05;3.90;;;;;;;10.16;57.37;101285.69;10124023;29;20501;-75
2023/04/30 07:17:56;;;;;;;17.08;4.40;;;;;;;9.99;57.60;101288.63;10122399;29;20085;-76
2023/04/30 07:22:59;;;;;;;13.45;6.38;;;;;;;10.15;57.08;101282.16;10122883;29;20727;-75
2023/04/30 07:28:02;;;;;;;10.75;4.32;;;;;;;10.64;55.10;101282.56;10125922;29;20056;-75
2023/04/30 07:33:08;;;;;;;14.82;5.28;;;;;;;10.95;54.63;101275.97;10120967;29;20056;-77
2023/04/30 07:38:11;;;;;;;9.02;4.47;;;;;;;11.12;53.53;101273.00;10121207;29;20047;-74
2023/04/30 07:43:14;;;;;;;12.00;3.80;;;;;;;11.43;53.28;101270.84;10119220;29;20044;-74
2023/04/30 07:48:18;;;;;;;11.15;3.33;;;;;;;11.32;52.13;101271.59;10121754;29;20052;-75
2023/04/30 07:53:21;;;;;;;14.50;3.53;;;;;;;11.79;52.49;101261.97;10122382;29;20051;-75
2023/04/30 07:58:24;;;;;;;10.82;3.05;;;;;;;12.36;50.22;101258.69;10123990;29;20067;-75
2023/04/30 08:03:28;;;;;;;13.13;3.58;;;;;;;12.60;49.11;101266.78;10117495;29;20203;-76
2023/04/30 08:08:31;;;;;;;13.77;2.95;;;;;;;12.75;47.73;101270.16;10128002;29;20059;-75
2023/04/30 08:13:35;;;;;;;15.98;3.53;;;;;;;13.01;46.01;101275.38;10122892;29;20052;-76
2023/04/30 08:18:43;;;;;;;12.55;3.22;;;;;;;13.15;46.19;101277.84;10123512;29;20070;-75
2023/04/30 08:23:46;;;;;;;9.70;3.20;;;;;;;13.36;45.31;101282.56;10135470;29;20060;-76
2023/04/30 08:28:49;;;;;;;7.28;3.42;;;;;;;13.92;45.59;101274.50;10119375;29;20435;-76
2023/04/30 08:33:53;;;;;;;7.97;2.72;;;;;;;13.70;43.58;101265.41;10122659;29;20648;-78
2023/04/30 08:38:56;;;;;;;7.85;3.03;;;;;;;13.65;44.71;101266.78;10123582;29;20116;-76
2023/04/30 08:44:01;;;;;;;9.57;3.10;;;;;;;13.88;43.41;101268.50;10125811;29;21736;-76
2023/04/30 08:49:06;;;;;;;8.23;2.50;;;;;;;13.49;42.93;101261.72;10126641;29;20057;-76
2023/04/30 08:54:12;;;;;;;10.40;2.80;;;;;;;14.04;43.70;101251.91;10124938;29;20048;-75
2023/04/30 08:59:15;;;;;;;9.02;3.65;;;;;;;14.79;42.81;101261.84;10126551;29;20148;-76
2023/04/30 09:04:20;;;;;;;7.60;2.50;;;;;;;14.60;42.15;101261.69;10132369;29;20044;-75
2023/04/30 09:09:28;;;;;;;8.35;3.10;;;;;;;14.67;41.81;101245.78;10130408;29;20055;-75
2023/04/30 09:14:32;;;;;;;13.30;3.33;;;;;;;14.79;43.19;101252.88;10130428;29;20048;-75
2023/04/30 09:19:37;;;;;;;11.18;2.60;;;;;;;15.27;42.60;101250.47;10133992;29;20048;-75
2023/04/30 09:24:46;;;;;;;7.15;3.08;;;;;;;15.36;41.17;101243.47;10134743;29;20052;-74
2023/04/30 09:29:49;;;;;;;7.68;3.28;;;;;;;16.10;41.37;101245.84;10145309;29;20145;-72
2023/04/30 09:34:53;;;;;;;9.32;3.05;;;;;;;16.68;39.94;101236.94;10121109;29;20566;-77
2023/04/30 09:39:56;;;;;;;10.50;2.95;;;;;;;16.77;39.47;101240.63;10131179;29;20228;-76
2023/04/30 09:44:59;;;;;;;11.02;3.85;;;;;;;16.79;40.07;101233.22;10128204;29;20060;-74
2023/04/30 09:50:05;;;;;;;8.32;2.45;;;;;;;17.06;38.79;101234.28;10133065;29;20040;-75
2023/04/30 09:55:09;;;;;;;8.35;3.05;;;;;;;16.72;38.82;101238.34;10126455;29;20539;-76
2023/04/30 10:00:14;;;;;;;6.45;2.30;;;;;;;16.98;37.52;101229.63;10128050;29;20052;-76
2023/04/30 10:05:19;;;;;;;5.97;2.72;;;;;;;17.35;38.50;101229.66;10120452;29;20074;-78
2023/04/30 10:10:22;;;;;;;8.15;2.67;;;;;;;17.33;37.19;101220.81;10139319;29;20056;-76
2023/04/30 10:15:28;;;;;;;8.15;2.60;;;;;;;17.54;37.09;101209.72;10134755;29;20056;-76
2023/04/30 10:20:36;;;;;;;5.28;2.35;;;;;;;17.73;37.28;101208.78;10130759;29;20123;-76
2023/04/30 10:25:39;;;;;;;10.65;3.08;;;;;;;18.24;36.59;101206.47;10134590;29;20092;-76
2023/04/30 10:30:43;;;;;;;5.63;2.33;;;;;;;17.67;35.61;101204.81;10141418;29;20051;-76
2023/04/30 10:35:53;;;;;;;4.75;2.65;;;;;;;17.44;36.50;101200.75;10134937;29;20176;-77
2023/04/30 10:40:57;;;;;;;5.88;2.55;;;;;;;17.78;36.94;101186.59;10128471;29;20055;-76
2023/04/30 10:46:00;;;;;;;4.72;2.65;;;;;;;18.58;36.57;101184.88;10130423;29;20135;-77
2023/04/30 10:51:05;;;;;;;7.50;2.53;;;;;;;19.35;34.76;101182.34;10134510;29;20181;-76
2023/04/30 10:56:08;;;;;;;4.88;2.17;;;;;;;20.22;33.55;101172.09;10135202;29;20179;-76
2023/04/30 11:01:13;;;;;;;3.78;2.47;;;;;;;21.49;31.35;101162.38;10130018;29;20074;-76
2023/04/30 11:06:18;;;;;;;8.63;2.38;;;;;;;21.44;30.43;101161.03;10130454;29;20068;-76
2023/04/30 11:11:23;;;;;;;4.63;1.58;;;;;;;21.58;30.73;101161.31;10120012;29;20060;-75
2023/04/30 11:16:29;;;;;;;9.15;3.15;;;;;;;22.74;30.15;101158.50;10128092;29;20044;-76
2023/04/30 11:21:33;;;;;;;5.25;3.05;;;;;;;23.17;28.88;101158.75;10130189;29;20543;-76
2023/04/30 11:27:03;;;;;;;5.15;2.03;;;;;;;23.09;29.61;101156.09;10129892;29;20055;-76
2023/04/30 11:32:07;;;;;;;4.93;2.15;;;;;;;23.33;29.11;101141.25;10125335;29;20167;-76
2023/04/30 11:37:13;;;;;;;5.80;2.58;;;;;;;23.54;28.90;101143.22;10119577;29;20441;-76
2023/04/30 11:42:19;;;;;;;6.18;2.30;;;;;;;23.73;29.05;101127.22;10123237;29;20052;-76
2023/04/30 11:47:22;;;;;;;7.05;2.28;;;;;;;23.63;29.17;101136.56;10110201;29;20056;-75
2023/04/30 11:52:26;;;;;;;7.40;3.08;;;;;;;24.18;28.45;101126.03;10124625;29;20056;-75
2023/04/30 11:57:35;;;;;;;7.50;2.40;;;;;;;24.10;28.93;101121.50;10127703;29;20420;-76
2023/04/30 12:02:38;;;;;;;3.05;1.77;;;;;;;23.97;28.33;101126.00;10126106;29;20044;-77
2023/04/30 12:07:47;;;;;;;5.82;2.13;;;;;;;23.17;28.65;101116.78;10130768;29;20047;-76
2023/04/30 12:12:51;;;;;;;5.70;2.08;;;;;;;22.46;29.60;101114.44;10136797;29;20127;-75
2023/04/30 12:17:57;;;;;;;2.83;1.75;;;;;;;22.06;28.96;101110.13;10125672;29;20050;-76
2023/04/30 12:23:01;;;;;;;4.28;1.60;;;;;;;21.76;29.75;101106.41;10111307;29;20060;-76
2023/04/30 12:28:04;;;;;;;5.40;2.17;;;;;;;21.83;30.64;101105.50;10129328;29;20076;-76
2023/04/30 12:33:10;;;;;;;5.15;1.73;;;;;;;22.18;29.58;101108.66;10125524;29;20428;-76
2023/04/30 12:38:17;;;;;;;6.63;2.80;;;;;;;21.79;30.38;101101.41;10135876;29;20045;-75
2023/04/30 12:43:19;;;;;;;4.00;1.58;;;;;;;21.83;29.50;101086.38;10114323;29;20547;-76
2023/04/30 12:48:24;;;;;;;5.10;1.85;;;;;;;21.77;29.27;101088.97;10129860;29;20048;-76
2023/04/30 12:53:29;;;;;;;5.63;1.75;;;;;;;21.97;29.33;101083.84;10136250;29;20044;-76
2023/04/30 12:58:31;;;;;;;4.85;1.92;;;;;;;21.80;30.26;101086.72;10136330;29;20050;-76
2023/04/30 13:03:35;;;;;;;5.03;2.13;;;;;;;21.98;29.08;101078.22;10131689;29;20147;-76
2023/04/30 13:08:39;;;;;;;8.20;2.58;;;;;;;22.24;30.26;101060.53;10130322;29;20056;-77
2023/04/30 13:13:58;;;;;;;3.83;2.08;;;;;;;22.75;28.94;101056.13;10132569;29;20199;-75
2023/04/30 13:19:01;;;;;;;7.47;2.10;;;;;;;22.19;30.10;101055.66;10133254;29;20063;-76
2023/04/30 13:24:06;;;;;;;6.43;2.42;;;;;;;21.61;30.77;101038.81;10128485;29;21096;-77
2023/04/30 13:29:09;;;;;;;4.50;2.95;;;;;;;21.93;29.82;101038.78;10129681;29;20055;-75
2023/04/30 13:34:11;;;;;;;6.47;2.10;;;;;;;21.51;30.13;101035.44;10128161;29;20073;-75
2023/04/30 13:39:16;;;;;;;4.15;1.55;;;;;;;21.95;30.39;101031.25;10128680;29;20044;-76
2023/04/30 13:44:18;;;;;;;5.53;1.98;;;;;;;22.66;29.67;101012.59;10128087;29;20048;-76
2023/04/30 13:49:21;;;;;;;6.75;2.60;;;;;;;22.34;30.11;101012.72;10107851;29;20468;-76
2023/04/30 13:54:26;;;;;;;5.22;2.30;;;;;;;22.41;29.47;101001.06;10118357;29;20208;-76
2023/04/30 13:59:29;;;;;;;3.97;1.58;;;;;;;22.53;30.11;101002.31;10122917;29;20102;-76
2023/04/30 14:04:32;;;;;;;3.80;1.60;;;;;;;22.45;30.08;101005.13;10108945;29;20047;-75
2023/04/30 14:09:36;;;;;;;4.03;1.77;;;;;;;22.43;30.18;101005.31;10121733;29;20135;-76
2023/04/30 14:14:39;;;;;;;2.70;1.40;;;;;;;22.75;30.12;101001.34;10105881;29;20059;-77
2023/04/30 14:19:42;;;;;;;4.07;1.88;;;;;;;22.87;30.42;100998.97;10125560;29;20416;-75
2023/04/30 14:24:46;;;;;;;6.78;2.30;;;;;;;22.69;29.78;100993.06;10123610;29;20143;-75
2023/04/30 14:29:49;;;;;;;4.47;1.80;;;;;;;22.48;30.53;100991.91;10117873;29;20243;-75
2023/04/30 14:34:52;;;;;;;3.72;2.22;;;;;;;22.45;30.71;100986.81;10091898;29;1161086;-76
2023/04/30 14:39:57;;;;;;;5.13;1.80;;;;;;;22.43;30.10;100972.47;10103770;29;20540;-76
2023/04/30 14:45:00;;;;;;;4.97;1.58;;;;;;;21.77;29.97;100980.44;10108874;29;20048;-75
2023/04/30 14:50:04;;;;;;;3.90;2.10;;;;;;;22.01;30.82;100982.09;10127427;29;20045;-76
2023/04/30 14:55:09;;;;;;;5.03;2.13;;;;;;;22.67;30.39;100970.50;10125368;29;20062;-75
2023/04/30 15:00:13;;;;;;;4.10;1.70;;;;;;;22.14;29.59;100965.06;10122660;29;20536;-76
2023/04/30 15:05:16;;;;;;;3.42;1.48;;;;;;;21.86;30.82;100965.69;10123966;29;20095;-75
2023/04/30 15:10:20;;;;;;;3.47;1.55;;;;;;;20.90;31.12;100950.56;10126450;29;20072;-76
2023/04/30 15:15:26;;;;;;;2.67;1.10;;;;;;;21.62;30.32;100952.19;10112217;29;20158;-76
2023/04/30 15:20:29;;;;;;;5.32;1.50;;;;;;;21.94;30.17;100942.00;10124232;29;20045;-75
2023/04/30 15:25:34;;;;;;;2.85;1.48;;;;;;;22.16;29.83;100946.59;10116534;29;20059;-76
2023/04/30 15:30:37;;;;;;;2.83;1.48;;;;;;;21.91;29.56;100936.91;10111859;29;20139;-75
2023/04/30 15:35:40;;;;;;;5.88;1.60;;;;;;;21.62;29.74;100931.16;10112428;29;20457;-75
2023/04/30 15:40:44;;;;;;;6.10;1.67;;;;;;;21.72;29.75;100933.66;10115297;29;20060;-76
2023/04/30 15:45:47;;;;;;;3.55;1.25;;;;;;;21.89;30.12;100923.44;10115834;29;20110;-76
2023/04/30 15:50:50;;;;;;;4.60;1.25;;;;;;;22.00;29.65;100933.06;10114097;29;20186;-75
2023/04/30 15:55:55;;;;;;;5.20;1.60;;;;;;;21.59;29.07;100925.22;10120619;29;20571;-75
2023/04/30 16:00:59;;;;;;;2.83;1.60;;;;;;;21.66;30.26;100923.44;10118612;29;20052;-76
2023/04/30 16:06:02;;;;;;;4.47;1.30;;;;;;;21.64;29.07;100918.16;10121864;29;20255;-76
2023/04/30 16:11:06;;;;;;;3.08;1.73;;;;;;;21.33;30.57;100910.03;10121924;29;20551;-75
2023/04/30 16:16:09;;;;;;;3.35;1.60;;;;;;;21.61;30.50;100906.72;10124224;29;20084;-76
2023/04/30 16:21:12;;;;;;;7.68;1.80;;;;;;;21.51;30.13;100903.41;10120529;29;20056;-75
2023/04/30 16:26:17;;;;;;;3.20;1.60;;;;;;;21.28;30.38;100904.25;10125240;29;20079;-78
2023/04/30 16:31:22;;;;;;;5.82;1.63;;;;;;;21.29;31.04;100902.41;10121932;29;20040;-76
2023/04/30 16:36:25;;;;;;;5.40;1.98;;;;;;;21.36;30.79;100895.16;10116141;29;20123;-75
2023/04/30 16:41:29;;;;;;;4.88;1.50;;;;;;;20.54;30.82;100882.84;10120018;29;20472;-75
2023/04/30 16:46:32;;;;;;;4.80;1.70;;;;;;;20.54;31.92;100877.41;10111622;29;20072;-76
2023/04/30 16:51:35;;;;;;;6.88;1.92;;;;;;;20.43;32.05;100882.38;10122930;29;20044;-77
2023/04/30 16:56:39;;;;;;;4.95;1.65;;;;;;;20.70;31.74;100881.91;10115169;29;20131;-76
2023/04/30 17:01:42;;;;;;;7.90;3.00;;;;;;;20.72;31.25;100876.28;10106661;29;20079;-76
2023/04/30 17:06:46;;;;;;;3.20;1.42;;;;;;;21.64;30.38;100871.69;10111037;29;20103;-75
2023/04/30 17:11:50;;;;;;;4.80;2.10;;;;;;;24.56;27.24;100855.78;10117005;29;20052;-75
2023/04/30 17:16:53;;;;;;;7.05;1.58;;;;;;;26.50;25.03;100848.19;10128134;29;20040;-75
2023/04/30 17:21:56;;;;;;;10.07;1.80;;;;;;;22.88;27.93;100852.78;10123004;29;20167;-76
2023/04/30 17:27:02;;;;;;;3.40;1.60;;;;;;;20.64;30.52;100855.31;10131118;29;20052;-76
2023/04/30 17:32:05;;;;;;;3.22;1.70;;;;;;;20.64;31.35;100854.47;10127951;29;21333;-76
2023/04/30 17:37:08;;;;;;;5.32;1.73;;;;;;;19.78;31.75;100851.53;10138591;29;21746;-74
2023/04/30 17:42:12;;;;;;;4.00;1.70;;;;;;;18.53;33.87;100855.31;10136899;29;20054;-77
2023/04/30 17:47:15;;;;;;;5.20;1.80;;;;;;;17.40;35.43;100849.06;10133214;29;20083;-75
2023/04/30 17:52:18;;;;;;;9.40;2.38;;;;;;;16.91;36.08;100849.44;10133294;29;20058;-76
2023/04/30 17:57:23;;;;;;;4.97;2.00;;;;;;;16.58;36.68;100851.78;10129930;29;20115;-77
2023/04/30 18:02:26;;;;;;;4.85;1.90;;;;;;;16.26;37.03;100849.53;10129610;29;20070;-75
2023/04/30 18:07:29;;;;;;;8.93;2.17;;;;;;;16.03;37.74;100849.06;10128778;29;20047;-76
2023/04/30 18:12:33;;;;;;;10.25;2.35;;;;;;;15.79;37.57;100846.00;10130245;29;20049;-77
2023/04/30 18:17:36;;;;;;;5.10;2.50;;;;;;;15.43;38.30;100846.66;10115995;29;20180;-76
2023/04/30 18:22:42;;;;;;;5.35;2.13;;;;;;;15.24;38.77;100842.06;10114522;29;20048;-76
2023/04/30 18:27:46;;;;;;;4.40;2.20;;;;;;;15.02;39.37;100842.38;10123074;29;20048;-74
2023/04/30 18:32:49;;;;;;;6.85;2.70;;;;;;;14.90;39.46;100848.94;10114064;29;21072;-74
2023/04/30 18:37:52;;;;;;;5.05;2.30;;;;;;;14.70;40.15;100843.50;10118236;29;20522;-74
2023/04/30 18:42:56;;;;;;;4.30;2.83;;;;;;;14.51;40.41;100841.63;10101659;29;20055;-75
2023/04/30 18:47:59;;;;;;;5.65;2.20;;;;;;;14.36;40.78;100840.25;10132331;29;20059;-75
2023/04/30 18:53:03;;;;;;;5.95;2.25;;;;;;;14.21;41.02;100838.94;10121107;29;20052;-75
2023/04/30 18:58:07;;;;;;;5.95;2.42;;;;;;;14.04;41.82;100833.19;10122598;29;20053;-75
2023/04/30 19:03:10;;;;;;;6.50;2.53;;;;;;;13.87;41.86;100839.22;10124962;29;20522;-76
2023/04/30 19:08:13;;;;;;;5.45;2.13;;;;;;;13.67;41.92;100835.56;10125424;29;20044;-75
2023/04/30 19:13:18;;;;;;;5.38;2.22;;;;;;;13.57;42.11;100840.88;10125837;29;20519;-77
2023/04/30 19:18:23;;;;;;;7.07;2.50;;;;;;;13.44;42.09;100845.66;10125199;29;20062;-76
2023/04/30 19:23:29;;;;;;;5.45;2.30;;;;;;;13.24;42.09;100850.84;10103418;29;20286;-77
2023/04/30 19:28:33;;;;;;;6.32;2.72;;;;;;;13.20;42.92;100852.13;10130834;29;20516;-75
2023/04/30 19:33:38;;;;;;;11.38;3.55;;;;;;;13.11;42.78;100852.91;10135116;29;20613;-75
2023/04/30 19:38:41;;;;;;;9.55;3.33;;;;;;;13.06;42.71;100857.84;10117701;29;20522;-76
2023/04/30 19:43:45;;;;;;;8.45;3.70;;;;;;;12.91;42.75;100857.25;10130294;29;20534;-76
2023/04/30 19:48:49;;;;;;;9.15;3.47;;;;;;;12.82;43.13;100852.63;10132231;29;20091;-75
2023/04/30 19:53:52;;;;;;;6.13;3.50;;;;;;;12.74;43.29;100858.66;10116562;29;20661;-75
2023/04/30 19:58:56;;;;;;;5.85;2.88;;;;;;;12.65;44.33;100859.44;10125512;29;20048;-75
2023/04/30 20:03:59;;;;;;;6.00;2.85;;;;;;;12.53;44.18;100858.63;10137866;29;20135;-77
2023/04/30 20:09:02;;;;;;;4.78;2.67;;;;;;;12.35;44.83;100847.47;10128694;29;20064;-77
2023/04/30 20:14:06;;;;;;;7.88;3.78;;;;;;;12.25;44.97;100845.63;10131192;29;20048;-75
2023/04/30 20:19:09;;;;;;;5.70;3.45;;;;;;;12.22;45.14;100851.25;10111989;29;20435;-75
2023/04/30 20:24:12;;;;;;;10.35;3.60;;;;;;;12.20;45.08;100842.44;10132673;29;20123;-76
2023/04/30 20:29:17;;;;;;;6.18;3.10;;;;;;;12.09;44.98;100846.00;10130869;29;20054;-76
2023/04/30 20:34:20;;;;;;;8.13;3.42;;;;;;;11.99;45.64;100840.50;10124269;29;20071;-76
2023/04/30 20:39:23;;;;;;;7.68;3.30;;;;;;;11.83;45.82;100830.09;10119225;29;20058;-75
2023/04/30 20:44:27;;;;;;;9.57;3.55;;;;;;;11.78;46.31;100828.75;10128006;29;20151;-76
2023/04/30 20:49:30;;;;;;;8.00;3.65;;;;;;;11.71;46.38;100818.47;10116506;29;20153;-76
2023/04/30 20:54:33;;;;;;;7.57;3.53;;;;;;;11.70;46.07;100821.28;10124357;29;20063;-76
2023/04/30 20:59:38;;;;;;;7.70;3.40;;;;;;;11.53;46.42;100811.00;10130552;29;20048;-76
2023/04/30 21:04:40;;;;;;;8.70;3.88;;;;;;;11.47;47.14;100807.81;10126744;29;20178;-76
2023/04/30 21:09:43;;;;;;;8.20;3.78;;;;;;;11.35;47.43;100803.34;10121411;29;20060;-75
2023/04/30 21:14:47;;;;;;;8.15;3.50;;;;;;;11.27;47.52;100806.66;10122854;29;20052;-77
2023/04/30 21:19:50;;;;;;;8.25;3.63;;;;;;;11.10;47.83;100804.38;10134038;29;20131;-77
2023/04/30 21:24:53;;;;;;;6.45;3.25;;;;;;;11.03;48.24;100811.22;10138221;29;20059;-76
2023/04/30 21:29:58;;;;;;;6.78;3.72;;;;;;;10.90;47.64;100807.72;10135848;29;20056;-77
2023/04/30 21:35:01;;;;;;;8.10;3.58;;;;;;;10.71;47.50;100805.56;10133182;29;20715;-77
2023/04/30 21:40:04;;;;;;;5.97;4.60;;;;;;;10.69;48.11;100803.00;10122224;29;20142;-77
2023/04/30 21:45:09;;;;;;;11.52;4.18;;;;;;;10.63;48.16;100792.72;10168634;29;20575;-77
2023/04/30 21:50:12;;;;;;;5.10;3.30;;;;;;;10.41;47.89;100789.91;10170797;29;20054;-76
2023/04/30 21:55:15;;;;;;;6.55;4.18;;;;;;;10.46;48.45;100790.44;10166748;29;20040;-77
2023/04/30 22:00:20;;;;;;;;;;;;;;;10.52;48.26;100790.81;10169936;29;20055;-78
2023/04/30 22:05:22;;;;;;;7.22;4.10;;;;;;;10.43;47.87;100786.16;10164460;29;19934;-78
2023/04/30 22:10:25;;;;;;;;;;;;;;;10.50;48.98;100790.06;10161099;29;20040;-76
2023/04/30 22:15:30;;;;;;;8.32;4.07;;;;;;;10.49;49.08;100779.47;10163407;29;19929;-76
2023/04/30 22:20:49;;;;;;;10.82;4.70;;;;;;;10.56;49.15;100773.53;10163331;29;20052;-77
2023/04/30 22:25:52;;;;;;;8.38;4.65;;;;;;;10.50;48.14;100775.78;10178776;29;20051;-77
2023/04/30 22:30:59;;;;;;;11.13;4.65;;;;;;;10.36;48.28;100769.59;10164606;29;20119;-77
2023/04/30 22:36:03;;;;;;;11.13;4.45;;;;;;;10.31;48.57;100755.69;10133452;29;20055;-76
2023/04/30 22:41:07;;;;;;;11.90;5.30;;;;;;;10.29;48.74;100759.47;10151439;29;20420;-77
2023/04/30 22:46:11;;;;;;;11.40;4.47;;;;;;;10.18;48.44;100752.19;10138708;29;20127;-77
2023/04/30 22:51:13;;;;;;;8.38;4.78;;;;;;;10.10;48.98;100744.69;10137135;29;20051;-76
2023/04/30 22:56:16;;;;;;;;;;;;;;;10.00;49.18;100745.47;10139949;29;20148;-77
2023/04/30 23:01:20;;;;;;;12.43;4.63;;;;;;;10.03;48.79;100735.38;10141481;29;19934;-77
2023/04/30 23:06:24;;;;;;;9.00;5.03;;;;;;;9.90;48.54;100730.06;10143615;29;20072;-78
2023/04/30 23:11:26;;;;;;;8.95;4.60;;;;;;;9.83;48.93;100733.25;10158448;29;20393;-78
2023/04/30 23:16:31;;;;;;;12.10;5.50;;;;;;;9.65;49.57;100730.06;10165812;29;20076;-77